Time;durP1;ratioP1;P1;durP2;ratioP2;P2;SDS_P1;SDS_P2;PMS_P1;PMS_P2;Temp;Humidity;BMP_temperature;BMP_pressure;BME280_temperature;BME280_humidity;BME280_pressure;Samples;Min_cycle;Max_cycle;Signal;HPM_P1;HPM_P2
2023/07/12 00:01:35;;;;;;;25.80;12.27;;;;;;;22.84;nan;100473.78;4967598;28;20392;-73
2023/07/12 00:04:01;;;;;;;21.35;11.57;;;;;;;22.65;nan;100464.03;4966662;28;20023;-73
2023/07/12 00:06:37;;;;;;;24.63;11.77;;;;;;;22.63;nan;100474.28;4968498;28;20085;-73
2023/07/12 00:09:04;;;;;;;21.30;12.00;;;;;;;22.56;nan;100470.44;4973689;28;20041;-73
2023/07/12 00:11:29;;;;;;;20.63;12.15;;;;;;;22.38;nan;100462.22;4967368;28;20034;-73
2023/07/12 00:13:55;;;;;;;19.27;11.27;;;;;;;22.34;nan;100469.28;4976408;28;20097;-73
2023/07/12 00:16:27;;;;;;;30.83;13.32;;;;;;;22.32;nan;100470.69;4978773;28;20038;-74
2023/07/12 00:18:54;;;;;;;30.70;13.07;;;;;;;22.28;nan;100473.97;4972251;28;20069;-73
2023/07/12 00:21:24;;;;;;;31.65;12.05;;;;;;;22.17;nan;100474.44;4963055;28;20057;-73
2023/07/12 00:23:58;;;;;;;30.13;13.13;;;;;;;22.07;nan;100478.13;4979054;28;20031;-73
2023/07/12 00:26:27;;;;;;;21.58;12.02;;;;;;;22.05;nan;100472.28;4978711;28;20060;-74
2023/07/12 00:28:54;;;;;;;25.98;12.30;;;;;;;22.01;nan;100468.63;4979669;28;20227;-73
2023/07/12 00:31:19;;;;;;;23.95;12.02;;;;;;;21.99;nan;100474.28;4981767;28;20058;-73
2023/07/12 00:33:45;;;;;;;27.58;12.05;;;;;;;21.97;nan;100486.41;4976104;28;20037;-73
2023/07/12 00:36:25;;;;;;;22.50;12.30;;;;;;;21.91;nan;100476.84;4975958;28;20573;-73
2023/07/12 00:38:51;;;;;;;22.45;12.80;;;;;;;21.83;nan;100475.66;4976228;28;20085;-73
2023/07/12 00:41:25;;;;;;;18.92;12.07;;;;;;;21.83;nan;100475.66;4974091;28;20042;-73
2023/07/12 00:44:16;;;;;;;18.30;11.65;;;;;;;21.76;nan;100468.03;4972168;28;20034;-73
2023/07/12 00:46:47;;;;;;;22.75;11.50;;;;;;;21.70;nan;100463.88;4948876;28;20038;-73
2023/07/12 00:49:13;;;;;;;22.90;12.48;;;;;;;21.65;nan;100466.66;4976591;28;20033;-73
2023/07/12 00:51:57;;;;;;;21.20;12.25;;;;;;;21.66;nan;100470.91;4974895;28;20117;-73
2023/07/12 00:54:46;;;;;;;24.15;12.68;;;;;;;21.60;nan;100474.78;4976905;28;20267;-74
2023/07/12 00:57:12;;;;;;;20.73;12.55;;;;;;;21.53;nan;100471.72;4975224;28;20030;-73
2023/07/12 00:59:38;;;;;;;22.88;12.80;;;;;;;21.49;nan;100470.69;4957079;28;20181;-73
2023/07/12 01:02:05;;;;;;;23.17;13.82;;;;;;;21.40;nan;100457.97;4965355;28;20121;-73
2023/07/12 01:04:39;;;;;;;21.23;12.35;;;;;;;21.40;nan;100468.69;4975320;28;20401;-73
2023/07/12 01:07:04;;;;;;;23.65;12.70;;;;;;;21.39;nan;100472.47;4959359;28;20536;-73
2023/07/12 01:09:32;;;;;;;23.23;12.70;;;;;;;21.35;nan;100463.41;4974521;28;20045;-72
2023/07/12 01:11:59;;;;;;;19.15;12.07;;;;;;;21.33;nan;100467.47;4963639;28;20042;-72
2023/07/12 01:14:24;;;;;;;22.55;12.48;;;;;;;21.32;nan;100469.34;4976250;28;20090;-73
2023/07/12 01:16:54;;;;;;;22.92;13.13;;;;;;;21.33;nan;100475.50;4973640;28;20440;-74
2023/07/12 01:19:19;;;;;;;20.25;12.55;;;;;;;21.25;nan;100471.63;4974301;28;20018;-74
2023/07/12 01:21:51;;;;;;;25.45;12.07;;;;;;;21.19;nan;100470.91;4975660;28;20027;-74
2023/07/12 01:24:17;;;;;;;28.02;13.05;;;;;;;21.13;nan;100453.34;4978986;28;20473;-74
2023/07/12 01:26:46;;;;;;;28.42;12.52;;;;;;;20.98;nan;100438.34;4972547;28;20034;-74
2023/07/12 01:29:12;;;;;;;22.98;13.45;;;;;;;21.11;nan;100466.22;4980307;28;20022;-73
2023/07/12 01:31:38;;;;;;;24.90;13.75;;;;;;;21.12;nan;100467.81;4956866;28;20396;-72
2023/07/12 01:34:05;;;;;;;21.02;13.27;;;;;;;21.07;nan;100465.25;4980483;28;20085;-72
2023/07/12 01:36:32;;;;;;;27.08;13.25;;;;;;;21.02;nan;100452.72;4971634;28;20728;-72
2023/07/12 01:38:59;;;;;;;23.75;13.18;;;;;;;21.06;nan;100458.28;4979088;28;20053;-73
2023/07/12 01:41:25;;;;;;;21.65;12.68;;;;;;;21.02;nan;100452.72;4975330;28;20025;-73
2023/07/12 01:43:52;;;;;;;23.83;13.55;;;;;;;20.94;nan;100464.09;4965916;28;20034;-73
2023/07/12 01:46:18;;;;;;;20.40;13.55;;;;;;;20.80;nan;100460.56;4970788;28;20039;-72
2023/07/12 01:48:44;;;;;;;25.58;12.98;;;;;;;20.75;nan;100464.13;4974418;28;20034;-74
2023/07/12 01:51:10;;;;;;;20.88;13.52;;;;;;;20.76;nan;100455.03;4975429;28;20037;-74
2023/07/12 01:53:35;;;;;;;17.77;13.32;;;;;;;20.73;nan;100460.16;4969593;28;20111;-74
2023/07/12 01:56:03;;;;;;;20.08;12.43;;;;;;;20.73;nan;100465.50;4962574;28;20030;-74
2023/07/12 01:58:29;;;;;;;21.10;12.68;;;;;;;20.72;nan;100472.75;4971994;28;20481;-74
2023/07/12 02:00:55;;;;;;;22.42;12.93;;;;;;;20.66;nan;100473.09;4976548;28;20110;-74
2023/07/12 02:03:21;;;;;;;25.15;13.82;;;;;;;20.57;nan;100459.59;4975007;28;20097;-73
2023/07/12 02:05:47;;;;;;;25.02;13.63;;;;;;;20.58;nan;100461.97;4975689;28;20524;-73
2023/07/12 02:08:13;;;;;;;24.10;12.98;;;;;;;20.57;nan;100459.59;4977974;28;20027;-73
2023/07/12 02:10:38;;;;;;;22.13;13.40;;;;;;;20.54;nan;100460.94;4971312;28;20031;-74
2023/07/12 02:13:04;;;;;;;19.02;12.75;;;;;;;20.51;nan;100471.41;4975712;28;20026;-74
2023/07/12 02:15:30;;;;;;;17.40;12.32;;;;;;;20.45;nan;100465.34;4975111;28;20466;-74
2023/07/12 02:17:56;;;;;;;21.85;12.55;;;;;;;20.37;nan;100463.31;4958938;28;20389;-74
2023/07/12 02:20:22;;;;;;;21.98;13.88;;;;;;;20.28;nan;100455.16;4971607;28;20027;-74
2023/07/12 02:22:49;;;;;;;18.65;13.13;;;;;;;20.32;nan;100466.06;4960875;28;20113;-73
2023/07/12 02:25:15;;;;;;;24.23;13.02;;;;;;;20.21;nan;100453.91;4967983;28;20026;-73
2023/07/12 02:27:44;;;;;;;19.52;13.32;;;;;;;20.23;nan;100452.53;4968146;28;20035;-74
2023/07/12 02:30:12;;;;;;;21.08;13.48;;;;;;;20.24;nan;100456.81;4977869;28;20028;-74
2023/07/12 02:32:38;;;;;;;20.30;12.80;;;;;;;20.16;nan;100449.41;4985220;28;20046;-74
2023/07/12 02:35:04;;;;;;;23.90;13.73;;;;;;;20.03;nan;100440.22;4968869;28;20503;-74
2023/07/12 02:37:29;;;;;;;19.98;13.13;;;;;;;20.02;nan;100449.34;4956798;28;20500;-74
2023/07/12 02:39:55;;;;;;;23.38;13.75;;;;;;;19.96;nan;100451.25;4957137;28;20018;-73
2023/07/12 02:42:20;;;;;;;20.80;13.73;;;;;;;19.96;nan;100451.25;4957176;28;20045;-74
2023/07/12 02:44:46;;;;;;;18.83;13.27;;;;;;;19.92;nan;100458.28;4986070;28;20035;-74
2023/07/12 02:47:11;;;;;;;20.17;12.70;;;;;;;19.82;nan;100446.91;4956271;28;20665;-74
2023/07/12 02:49:38;;;;;;;20.63;13.38;;;;;;;19.72;nan;100440.59;4971834;28;20081;-73
2023/07/12 02:52:06;;;;;;;21.05;13.43;;;;;;;19.78;nan;100457.38;4944014;28;20027;-73
2023/07/12 02:54:32;;;;;;;18.38;12.93;;;;;;;19.70;nan;100448.09;4972131;28;20042;-73
2023/07/12 02:56:58;;;;;;;20.30;13.38;;;;;;;19.70;nan;100447.31;4969569;28;20398;-73
2023/07/12 02:59:24;;;;;;;22.85;13.57;;;;;;;19.64;nan;100449.22;4964564;28;20030;-73
2023/07/12 03:01:50;;;;;;;19.95;13.80;;;;;;;19.65;nan;100448.13;4953155;28;20123;-73
2023/07/12 03:04:17;;;;;;;20.42;13.23;;;;;;;19.55;nan;100449.03;4969534;28;20037;-73
2023/07/12 03:06:42;;;;;;;21.10;13.55;;;;;;;19.48;nan;100458.47;4971167;28;20165;-73
2023/07/12 03:09:08;;;;;;;24.63;13.40;;;;;;;19.39;nan;100462.81;4969237;28;20019;-73
2023/07/12 03:11:33;;;;;;;19.65;13.45;;;;;;;19.36;nan;100455.38;4956580;28;20027;-73
2023/07/12 03:13:58;;;;;;;27.02;14.63;;;;;;;19.35;nan;100451.94;4970033;28;20563;-73
2023/07/12 03:16:24;;;;;;;25.73;13.80;;;;;;;19.31;nan;100442.88;4967067;28;20031;-74
2023/07/12 03:18:50;;;;;;;24.30;13.52;;;;;;;19.33;nan;100462.88;4970246;28;20039;-73
2023/07/12 03:21:18;;;;;;;21.02;13.52;;;;;;;19.21;nan;100442.97;4950988;28;20422;-73
2023/07/12 03:23:44;;;;;;;28.55;14.35;;;;;;;19.34;nan;100461.78;4968427;28;20061;-74
2023/07/12 03:26:09;;;;;;;22.55;13.90;;;;;;;19.30;nan;100450.09;4965703;28;20035;-73
2023/07/12 03:28:35;;;;;;;21.30;13.85;;;;;;;19.31;nan;100454.34;4967791;28;20047;-73
2023/07/12 03:31:03;;;;;;;20.55;14.07;;;;;;;19.32;nan;100453.28;4967358;28;20034;-73
2023/07/12 03:33:29;;;;;;;19.67;13.63;;;;;;;19.33;nan;100457.53;4969127;28;20027;-74
2023/07/12 03:35:55;;;;;;;25.63;14.07;;;;;;;19.37;nan;100462.31;4970624;28;20031;-74
2023/07/12 03:38:24;;;;;;;21.45;13.68;;;;;;;19.36;nan;100474.06;4975313;28;20531;-73
2023/07/12 03:40:51;;;;;;;20.85;13.35;;;;;;;19.25;nan;100452.81;4953710;28;20038;-74
2023/07/12 03:43:16;;;;;;;23.17;14.25;;;;;;;19.30;nan;100466.13;4955126;28;20019;-73
2023/07/12 03:45:45;;;;;;;28.67;14.20;;;;;;;19.36;nan;100464.19;4958679;28;20045;-73
2023/07/12 03:48:11;;;;;;;21.67;14.05;;;;;;;19.32;nan;100458.63;4965898;28;20026;-73
2023/07/12 03:50:43;;;;;;;20.95;13.45;;;;;;;19.37;nan;100464.97;4948896;28;20061;-73
2023/07/12 03:53:09;;;;;;;22.48;14.50;;;;;;;19.38;nan;100475.38;4966572;28;20034;-74
2023/07/12 03:55:43;;;;;;;33.33;14.07;;;;;;;19.38;nan;100472.72;4970605;28;20038;-73
2023/07/12 03:58:11;;;;;;;25.90;14.68;;;;;;;19.45;nan;100480.41;4973945;28;20022;-73
2023/07/12 04:00:41;;;;;;;30.98;14.20;;;;;;;19.48;nan;100474.50;4972540;28;20030;-74
2023/07/12 04:03:06;;;;;;;20.33;13.10;;;;;;;19.57;nan;100475.47;4968392;28;20477;-74
2023/07/12 04:05:42;;;;;;;22.48;13.57;;;;;;;19.61;nan;100478.34;4969502;28;20041;-73
2023/07/12 04:08:10;;;;;;;19.48;12.95;;;;;;;19.63;nan;100474.31;4968316;28;20036;-75
2023/07/12 04:10:36;;;;;;;19.92;13.25;;;;;;;19.69;nan;100470.56;4973729;28;20066;-72
2023/07/12 04:13:02;;;;;;;22.90;13.88;;;;;;;19.73;nan;100471.59;4967736;28;20082;-75
2023/07/12 04:15:28;;;;;;;19.75;13.07;;;;;;;19.74;nan;100475.84;4965249;28;20050;-74
2023/07/12 04:17:53;;;;;;;20.33;13.52;;;;;;;19.79;nan;100469.66;4965935;28;20030;-72
2023/07/12 04:20:19;;;;;;;23.25;12.95;;;;;;;19.75;nan;100465.94;4969062;28;20040;-73
2023/07/12 04:22:48;;;;;;;19.10;13.18;;;;;;;19.86;nan;100474.66;4975308;28;20038;-73
2023/07/12 04:25:14;;;;;;;24.00;13.48;;;;;;;19.91;nan;100477.25;4970929;28;20062;-72
2023/07/12 04:27:39;;;;;;;22.67;13.43;;;;;;;19.94;nan;100476.69;4973846;28;20066;-73
2023/07/12 04:30:10;;;;;;;21.80;13.20;;;;;;;19.98;nan;100475.03;4975698;28;20962;-71
2023/07/12 04:32:36;;;;;;;19.25;13.48;;;;;;;20.10;nan;100479.97;4955107;28;20030;-71
2023/07/12 04:35:01;;;;;;;21.27;13.20;;;;;;;20.17;nan;100475.88;4967447;28;20034;-72
2023/07/12 04:37:27;;;;;;;22.42;13.32;;;;;;;20.19;nan;100463.00;4969728;28;20037;-71
2023/07/12 04:39:52;;;;;;;22.92;13.80;;;;;;;20.29;nan;100470.09;4969071;28;20105;-72
2023/07/12 04:42:18;;;;;;;20.23;13.20;;;;;;;20.32;nan;100463.38;4971513;28;20033;-72
2023/07/12 04:44:44;;;;;;;25.15;13.55;;;;;;;20.47;nan;100473.88;4967363;28;20063;-72
2023/07/12 04:47:09;;;;;;;23.90;13.75;;;;;;;20.48;nan;100478.13;4972689;28;20030;-71
2023/07/12 04:49:35;;;;;;;21.58;13.30;;;;;;;20.54;nan;100478.84;4969034;28;20092;-71
2023/07/12 04:52:00;;;;;;;24.10;13.73;;;;;;;20.62;nan;100486.28;4972097;28;20043;-71
2023/07/12 04:54:26;;;;;;;24.10;13.07;;;;;;;20.71;nan;100476.50;4971031;28;20038;-72
2023/07/12 04:56:52;;;;;;;25.13;13.00;;;;;;;20.80;nan;100472.06;4961658;28;20030;-71
2023/07/12 04:59:18;;;;;;;23.77;13.35;;;;;;;20.80;nan;100468.59;4971127;28;20112;-73
2023/07/12 05:01:45;;;;;;;19.17;12.77;;;;;;;20.96;nan;100477.19;4961374;28;20057;-71
2023/07/12 05:04:11;;;;;;;24.30;13.70;;;;;;;20.97;nan;100476.09;4970948;28;20034;-71
2023/07/12 05:06:36;;;;;;;23.98;12.80;;;;;;;20.93;nan;100475.09;4959508;28;20034;-71
2023/07/12 05:09:03;;;;;;;21.30;12.55;;;;;;;20.93;nan;100485.81;4964211;28;20537;-74
2023/07/12 05:11:28;;;;;;;20.10;13.20;;;;;;;20.99;nan;100490.78;4956936;28;20039;-72
2023/07/12 05:13:53;;;;;;;19.65;13.35;;;;;;;21.04;nan;100485.34;4971684;28;20041;-72
2023/07/12 05:16:19;;;;;;;21.98;13.95;;;;;;;21.13;nan;100492.72;4969174;28;20485;-71
2023/07/12 05:18:44;;;;;;;23.73;12.85;;;;;;;21.22;nan;100502.47;4973216;28;20026;-72
2023/07/12 05:21:10;;;;;;;25.92;13.43;;;;;;;21.30;nan;100498.31;4969546;28;20512;-72
2023/07/12 05:23:36;;;;;;;18.95;13.23;;;;;;;21.32;nan;100498.81;4968284;28;20034;-73
2023/07/12 05:26:02;;;;;;;26.05;13.82;;;;;;;21.38;nan;100491.47;4956370;28;20073;-72
2023/07/12 05:28:27;;;;;;;25.50;13.35;;;;;;;21.39;nan;100477.81;4957389;28;20077;-72
2023/07/12 05:30:53;;;;;;;24.50;13.30;;;;;;;21.49;nan;100476.84;4971832;28;20031;-71
2023/07/12 05:33:18;;;;;;;22.15;13.82;;;;;;;21.62;nan;100470.72;4969946;28;20026;-71
2023/07/12 05:35:46;;;;;;;25.87;13.07;;;;;;;21.75;nan;100471.00;4973139;28;20607;-70
2023/07/12 05:38:11;;;;;;;24.80;13.35;;;;;;;21.85;nan;100474.28;4971033;28;20265;-73
2023/07/12 05:40:37;;;;;;;25.50;13.40;;;;;;;21.95;nan;100467.13;4950875;28;20075;-70
2023/07/12 05:43:02;;;;;;;24.02;12.75;;;;;;;22.03;nan;100459.19;4968892;28;20034;-70
2023/07/12 05:45:28;;;;;;;20.65;11.88;;;;;;;22.21;nan;100467.41;4969123;28;20027;-73
2023/07/12 05:47:53;;;;;;;17.10;12.52;;;;;;;22.33;nan;100456.97;4973354;28;20477;-73
2023/07/12 05:50:19;;;;;;;22.02;12.20;;;;;;;22.51;nan;100461.38;4964992;28;20057;-72
2023/07/12 05:52:46;;;;;;;22.40;12.20;;;;;;;22.48;nan;100434.34;4964376;28;20113;-73
2023/07/12 05:55:14;;;;;;;18.35;11.77;;;;;;;22.79;nan;100455.88;4965196;28;20120;-73
2023/07/12 05:57:39;;;;;;;27.70;12.17;;;;;;;22.90;nan;100464.50;4969965;28;20050;-73
2023/07/12 06:00:08;;;;;;;21.48;12.38;;;;;;;23.09;nan;100464.34;4970064;28;20062;-73
2023/07/12 06:02:33;;;;;;;22.50;11.43;;;;;;;23.17;nan;100465.47;4949734;28;20497;-73
2023/07/12 06:04:59;;;;;;;24.15;11.90;;;;;;;23.24;nan;100465.84;4970539;28;20035;-73
2023/07/12 06:07:24;;;;;;;18.70;10.65;;;;;;;23.38;nan;100477.28;4955198;28;20217;-72
2023/07/12 06:09:50;;;;;;;22.23;10.52;;;;;;;23.45;nan;100474.97;4969518;28;20062;-72
2023/07/12 06:12:15;;;;;;;19.67;11.38;;;;;;;23.59;nan;100474.88;4970704;28;20022;-72
2023/07/12 06:14:40;;;;;;;19.15;11.02;;;;;;;23.68;nan;100478.38;4971645;28;20042;-73
2023/07/12 06:17:06;;;;;;;20.05;11.05;;;;;;;23.80;nan;100487.75;4964845;28;20074;-73
2023/07/12 06:19:32;;;;;;;17.02;11.70;;;;;;;23.92;nan;100496.84;4982135;28;20545;-72
2023/07/12 06:21:58;;;;;;;23.67;11.90;;;;;;;24.04;nan;100498.13;4970377;28;20030;-72
2023/07/12 06:24:23;;;;;;;18.02;11.98;;;;;;;24.15;nan;100508.28;4957029;28;20031;-72
2023/07/12 06:26:49;;;;;;;20.85;11.95;;;;;;;24.20;nan;100504.63;4969327;28;20023;-73
2023/07/12 06:29:14;;;;;;;15.88;11.93;;;;;;;24.38;nan;100508.16;4966756;28;20189;-71
2023/07/12 06:31:45;;;;;;;24.50;12.40;;;;;;;24.46;nan;100515.47;4966165;28;20030;-70
2023/07/12 06:34:11;;;;;;;16.75;12.32;;;;;;;24.51;nan;100518.00;4969952;28;20030;-70
2023/07/12 06:36:36;;;;;;;20.00;12.25;;;;;;;24.58;nan;100522.94;4973215;28;20037;-70
2023/07/12 06:39:02;;;;;;;20.55;12.50;;;;;;;24.56;nan;100506.28;4968331;28;20117;-69
2023/07/12 06:41:27;;;;;;;22.20;12.73;;;;;;;24.62;nan;100524.69;4973667;28;20100;-69
2023/07/12 06:43:53;;;;;;;16.80;11.68;;;;;;;24.69;nan;100526.91;4971606;28;20035;-70
2023/07/12 06:46:18;;;;;;;21.08;12.13;;;;;;;24.71;nan;100524.69;4970454;28;20022;-70
2023/07/12 06:48:44;;;;;;;20.80;12.15;;;;;;;24.80;nan;100533.53;4967831;28;20055;-70
2023/07/12 06:51:09;;;;;;;23.02;11.68;;;;;;;24.87;nan;100537.66;4969125;28;20023;-70
2023/07/12 06:53:35;;;;;;;22.45;12.82;;;;;;;24.82;nan;100525.16;4957646;28;20046;-72
2023/07/12 06:56:00;;;;;;;21.85;12.63;;;;;;;24.89;nan;100528.16;4967866;28;20045;-71
2023/07/12 06:58:26;;;;;;;15.90;11.90;;;;;;;25.04;nan;100529.56;4954869;28;20078;-72
2023/07/12 07:00:52;;;;;;;26.88;13.02;;;;;;;24.99;nan;100511.66;4971644;28;20488;-72
2023/07/12 07:03:18;;;;;;;19.23;13.05;;;;;;;25.13;nan;100524.16;4989527;28;20097;-72
2023/07/12 07:05:45;;;;;;;26.13;13.05;;;;;;;25.13;nan;100511.47;4945393;28;20065;-69
2023/07/12 07:08:16;;;;;;;22.52;12.85;;;;;;;25.30;nan;100516.06;4968071;28;20023;-71
2023/07/12 07:10:43;;;;;;;18.48;12.20;;;;;;;25.36;nan;100500.53;4959843;28;20033;-71
2023/07/12 07:13:09;;;;;;;21.25;12.38;;;;;;;25.44;nan;100487.00;4968369;28;20043;-71
2023/07/12 07:15:35;;;;;;;23.02;12.32;;;;;;;25.44;nan;100467.34;4968756;28;20058;-71
2023/07/12 07:18:01;;;;;;;22.60;13.00;;;;;;;25.61;nan;100482.66;4964398;28;20022;-71
2023/07/12 07:20:27;;;;;;;18.33;12.48;;;;;;;25.63;nan;100473.13;4968613;28;20077;-70
2023/07/12 07:22:53;;;;;;;21.67;12.30;;;;;;;25.69;nan;100473.72;4970824;28;20085;-71
2023/07/12 07:25:18;;;;;;;18.13;11.57;;;;;;;25.81;nan;100479.25;4974567;28;20030;-70
2023/07/12 07:27:44;;;;;;;16.75;11.75;;;;;;;25.87;nan;100483.34;4974348;28;20085;-71
2023/07/12 07:30:10;;;;;;;17.83;11.73;;;;;;;25.83;nan;100460.81;4975389;28;20022;-71
2023/07/12 07:32:35;;;;;;;18.13;11.63;;;;;;;25.91;nan;100461.09;4976903;28;20031;-70
2023/07/12 07:35:01;;;;;;;14.93;11.40;;;;;;;26.23;nan;100481.22;4958743;28;20041;-71
2023/07/12 07:37:26;;;;;;;25.48;11.73;;;;;;;26.41;nan;100473.78;4965697;28;20549;-71
2023/07/12 07:39:51;;;;;;;14.88;11.65;;;;;;;26.52;nan;100473.06;4977309;28;20026;-71
2023/07/12 07:42:17;;;;;;;20.08;10.95;;;;;;;26.67;nan;100481.69;4975145;28;20038;-70
2023/07/12 07:44:42;;;;;;;14.82;11.43;;;;;;;26.77;nan;100486.72;4974519;28;20030;-71
2023/07/12 07:47:08;;;;;;;15.25;11.38;;;;;;;26.80;nan;100486.03;4956003;28;20046;-70
2023/07/12 07:49:34;;;;;;;19.35;11.35;;;;;;;26.88;nan;100487.84;4973221;28;20027;-71
2023/07/12 07:51:59;;;;;;;15.07;11.25;;;;;;;26.94;nan;100497.34;4977910;28;20037;-70
2023/07/12 07:54:25;;;;;;;22.70;11.30;;;;;;;26.98;nan;100504.78;4986894;28;20491;-71
2023/07/12 07:56:50;;;;;;;18.70;12.23;;;;;;;26.97;nan;100500.50;4977832;28;20031;-70
2023/07/12 07:59:16;;;;;;;17.05;11.77;;;;;;;27.02;nan;100503.78;4963572;28;20073;-71
2023/07/12 08:01:41;;;;;;;23.10;12.68;;;;;;;26.98;nan;100496.69;4974053;28;20556;-69
2023/07/12 08:04:08;;;;;;;19.33;12.27;;;;;;;27.02;nan;100503.78;4972283;28;20050;-70
2023/07/12 08:06:34;;;;;;;19.02;12.52;;;;;;;26.96;nan;100494.31;4975532;28;20062;-70
2023/07/12 08:08:59;;;;;;;20.65;12.80;;;;;;;27.02;nan;100498.38;4973598;28;20454;-70
2023/07/12 08:11:25;;;;;;;14.32;11.90;;;;;;;27.02;nan;100487.56;4977451;28;20066;-70
2023/07/12 08:13:50;;;;;;;21.42;13.35;;;;;;;27.06;nan;100487.72;4973629;28;20090;-70
2023/07/12 08:16:16;;;;;;;17.17;13.05;;;;;;;27.00;nan;100479.00;4975468;28;20030;-70
2023/07/12 08:18:42;;;;;;;24.27;12.68;;;;;;;27.09;nan;100493.22;4958816;28;20041;-71
2023/07/12 08:21:08;;;;;;;23.17;11.85;;;;;;;27.13;nan;100490.66;4977607;28;20085;-71
2023/07/12 08:23:34;;;;;;;16.20;11.73;;;;;;;27.12;nan;100486.34;4977233;28;20039;-71
2023/07/12 08:25:59;;;;;;;14.20;11.10;;;;;;;27.24;nan;100491.81;4977654;28;20095;-70
2023/07/12 08:28:25;;;;;;;15.88;10.10;;;;;;;27.30;nan;100484.28;4973228;28;20023;-70
2023/07/12 08:30:50;;;;;;;14.68;9.88;;;;;;;27.48;nan;100485.66;4957091;28;20448;-71
2023/07/12 08:33:16;;;;;;;14.38;9.95;;;;;;;27.59;nan;100480.59;4967549;28;20414;-71
2023/07/12 08:35:44;;;;;;;14.60;8.57;;;;;;;27.72;nan;100459.72;4970739;28;20382;-71
2023/07/12 08:38:09;;;;;;;14.70;9.38;;;;;;;27.90;nan;100471.16;4949881;28;20023;-71
2023/07/12 08:40:43;;;;;;;14.38;10.00;;;;;;;28.04;nan;100459.94;4970882;28;20113;-71
2023/07/12 08:43:21;;;;;;;15.68;9.80;;;;;;;28.23;nan;100459.31;4970918;28;20026;-71
2023/07/12 08:45:50;;;;;;;11.25;9.18;;;;;;;28.37;nan;100457.03;4968230;28;20046;-71
2023/07/12 08:48:21;;;;;;;14.27;9.13;;;;;;;28.44;nan;100432.84;4970085;28;20031;-71
2023/07/12 08:50:48;;;;;;;20.42;10.20;;;;;;;28.61;nan;100429.88;4970976;28;20117;-71
2023/07/12 08:53:20;;;;;;;18.50;10.35;;;;;;;28.70;nan;100426.22;4969530;28;20552;-71
2023/07/12 08:55:46;;;;;;;12.85;9.55;;;;;;;28.89;nan;100420.13;4976367;28;20385;-71
2023/07/12 08:58:21;;;;;;;21.67;10.77;;;;;;;29.01;nan;100415.41;4972471;28;20015;-71
2023/07/12 09:00:54;;;;;;;14.10;9.27;;;;;;;29.11;nan;100399.78;4970058;28;20370;-71
2023/07/12 09:03:19;;;;;;;15.05;9.45;;;;;;;29.20;nan;100403.13;4955241;28;20023;-70
2023/07/12 09:05:45;;;;;;;13.23;9.10;;;;;;;29.41;nan;100416.41;4974186;28;20393;-69
2023/07/12 09:08:22;;;;;;;15.27;10.02;;;;;;;29.49;nan;100399.13;4967893;28;20058;-70
2023/07/12 09:10:52;;;;;;;14.75;10.18;;;;;;;29.54;nan;100398.09;4973193;28;20034;-70
2023/07/12 09:13:18;;;;;;;12.77;9.15;;;;;;;29.63;nan;100395.97;4972701;28;20519;-71
2023/07/12 09:15:45;;;;;;;13.02;9.43;;;;;;;29.73;nan;100400.09;4952540;28;20050;-71
2023/07/12 09:18:26;;;;;;;16.17;9.23;;;;;;;29.82;nan;100406.88;4970988;28;20164;-70
2023/07/12 09:20:51;;;;;;;14.50;9.50;;;;;;;29.94;nan;100416.03;4972112;28;20046;-71
2023/07/12 09:23:17;;;;;;;14.50;9.35;;;;;;;29.92;nan;100421.81;4973675;28;20030;-71
2023/07/12 09:25:47;;;;;;;12.82;9.43;;;;;;;29.96;nan;100424.63;4957953;28;20031;-71
2023/07/12 09:28:14;;;;;;;13.30;8.98;;;;;;;29.99;nan;100410.34;4966625;28;20290;-71
2023/07/12 09:30:39;;;;;;;15.77;8.98;;;;;;;29.93;nan;100403.59;4970180;28;20034;-72
2023/07/12 09:33:06;;;;;;;13.13;9.55;;;;;;;29.96;nan;100400.97;4962958;28;20030;-71
2023/07/12 09:35:46;;;;;;;16.45;9.15;;;;;;;29.91;nan;100390.41;4988609;28;20040;-71
2023/07/12 09:38:14;;;;;;;14.93;9.32;;;;;;;29.93;nan;100393.53;4968584;28;20015;-71
2023/07/12 09:40:44;;;;;;;16.08;9.20;;;;;;;30.08;nan;100411.69;4970259;28;20604;-70
2023/07/12 09:43:22;;;;;;;12.23;8.77;;;;;;;30.14;nan;100387.75;4973298;28;20109;-70
2023/07/12 09:46:09;;;;;;;12.18;8.82;;;;;;;30.31;nan;100365.63;4967887;28;20027;-70
2023/07/12 09:48:48;;;;;;;15.40;8.52;;;;;;;30.41;nan;100358.00;4968905;28;20039;-69
2023/07/12 09:51:28;;;;;;;14.38;9.18;;;;;;;30.64;nan;100356.09;4967609;28;20041;-68
2023/07/12 09:53:59;;;;;;;14.95;8.45;;;;;;;30.81;nan;100352.09;4950209;28;20031;-68
2023/07/12 09:56:51;;;;;;;13.80;8.88;;;;;;;30.93;nan;100362.03;4970438;28;20436;-68
2023/07/12 09:59:37;;;;;;;12.07;8.27;;;;;;;31.05;nan;100358.34;4967785;28;20042;-68
2023/07/12 10:02:31;;;;;;;12.73;8.10;;;;;;;31.14;nan;100356.16;4968706;28;20033;-69
2023/07/12 10:05:06;;;;;;;11.88;8.25;;;;;;;31.21;nan;100366.34;4969315;28;20035;-68
2023/07/12 10:07:48;;;;;;;12.85;8.50;;;;;;;31.29;nan;100368.03;4973421;28;20038;-70
2023/07/12 10:10:25;;;;;;;18.20;8.00;;;;;;;31.37;nan;100364.28;4968460;28;20030;-70
2023/07/12 10:13:14;;;;;;;14.80;8.43;;;;;;;31.46;nan;100372.19;4968937;28;20089;-70
2023/07/12 10:15:40;;;;;;;13.68;7.65;;;;;;;31.52;nan;100376.94;4966572;28;20051;-69
2023/07/12 10:18:10;;;;;;;14.10;7.57;;;;;;;31.65;nan;100380.22;4966384;28;20035;-69
2023/07/12 10:20:35;;;;;;;9.15;7.90;;;;;;;31.68;nan;100363.16;4968948;28;20554;-70
2023/07/12 10:23:03;;;;;;;9.73;7.50;;;;;;;31.74;nan;100358.16;4966746;28;20030;-70
2023/07/12 10:25:33;;;;;;;10.73;8.05;;;;;;;31.86;nan;100357.16;4966448;28;20119;-71
2023/07/12 10:28:23;;;;;;;9.88;7.55;;;;;;;31.96;nan;100353.78;4967182;28;20030;-70
2023/07/12 10:30:50;;;;;;;16.35;7.68;;;;;;;32.03;nan;100337.53;4968064;28;20165;-70
2023/07/12 10:33:25;;;;;;;12.88;8.35;;;;;;;32.12;nan;100337.25;4970106;28;20023;-70
2023/07/12 10:35:57;;;;;;;11.23;7.22;;;;;;;32.19;nan;100331.88;4963043;28;20038;-70
2023/07/12 10:38:23;;;;;;;11.25;7.63;;;;;;;32.29;nan;100328.47;4966708;28;20057;-70
2023/07/12 10:41:05;;;;;;;13.93;7.57;;;;;;;32.33;nan;100321.13;4969284;28;20081;-69
2023/07/12 10:43:38;;;;;;;11.73;7.38;;;;;;;32.41;nan;100317.28;4966595;28;20027;-70
2023/07/12 10:46:13;;;;;;;18.60;7.45;;;;;;;32.52;nan;100308.47;4967022;28;20030;-69
2023/07/12 10:48:47;;;;;;;14.43;7.50;;;;;;;32.55;nan;100310.44;4966224;28;20580;-70
2023/07/12 10:51:35;;;;;;;12.38;7.38;;;;;;;32.63;nan;100312.81;4970119;28;20396;-70
2023/07/12 10:54:01;;;;;;;15.40;7.50;;;;;;;32.74;nan;100307.47;4964455;28;20034;-69
2023/07/12 10:56:32;;;;;;;9.07;7.32;;;;;;;32.78;nan;100305.56;4952427;28;20031;-69
2023/07/12 10:59:00;;;;;;;13.77;7.53;;;;;;;32.88;nan;100300.56;4966920;28;20050;-69
2023/07/12 11:01:41;;;;;;;10.15;6.88;;;;;;;32.94;nan;100308.00;4966080;28;20030;-68
2023/07/12 11:04:18;;;;;;;15.40;6.68;;;;;;;33.03;nan;100299.50;4968420;28;20096;-69
2023/07/12 11:07:02;;;;;;;17.85;6.88;;;;;;;33.12;nan;100299.19;4967467;28;20034;-68
2023/07/12 11:09:45;;;;;;;9.80;6.85;;;;;;;33.18;nan;100297.66;4981940;28;20666;-69
2023/07/12 11:12:18;;;;;;;10.95;6.70;;;;;;;33.23;nan;100291.81;4966794;28;20053;-69
2023/07/12 11:14:48;;;;;;;12.40;6.47;;;;;;;33.36;nan;100287.63;4968424;28;20046;-68
2023/07/12 11:17:28;;;;;;;12.50;6.38;;;;;;;33.44;nan;100294.66;4967410;28;20146;-69
2023/07/12 11:20:21;;;;;;;16.73;6.72;;;;;;;33.48;nan;100278.31;4969550;28;20488;-69
2023/07/12 11:22:55;;;;;;;14.05;6.40;;;;;;;33.50;nan;100275.19;4972629;28;20119;-68
2023/07/12 11:25:40;;;;;;;13.82;6.70;;;;;;;33.54;nan;100286.91;4971346;28;20031;-68
2023/07/12 11:28:21;;;;;;;20.92;8.15;;;;;;;33.56;nan;100284.56;4971012;28;20031;-68
2023/07/12 11:31:02;;;;;;;15.80;6.95;;;;;;;33.58;nan;100290.47;4961788;28;20050;-68
2023/07/12 11:33:32;;;;;;;13.07;6.30;;;;;;;33.54;nan;100284.94;4952075;28;20749;-67